sensor_id;sensor_type;location;lat;lon;timestamp;P1;durP1;ratioP1;P2;durP2;ratioP2
7432;SDS011;32233;49.500;7.764;2023-05-07T00:01:12;3.27;;;2.97;;
7432;SDS011;32233;49.500;7.764;2023-05-07T00:03:38;2.90;;;2.70;;
7432;SDS011;32233;49.500;7.764;2023-05-07T00:06:05;3.33;;;2.90;;
7432;SDS011;32233;49.500;7.764;2023-05-07T00:08:32;4.23;;;3.33;;
7432;SDS011;32233;49.500;7.764;2023-05-07T00:10:59;3.93;;;3.23;;
7432;SDS011;32233;49.500;7.764;2023-05-07T00:13:26;4.53;;;3.20;;
7432;SDS011;32233;49.500;7.764;2023-05-07T00:15:53;3.73;;;3.20;;
7432;SDS011;32233;49.500;7.764;2023-05-07T00:18:20;2.67;;;2.53;;
7432;SDS011;32233;49.500;7.764;2023-05-07T00:20:48;5.07;;;2.50;;
7432;SDS011;32233;49.500;7.764;2023-05-07T00:23:15;4.47;;;2.60;;
7432;SDS011;32233;49.500;7.764;2023-05-07T00:25:41;3.20;;;2.57;;
7432;SDS011;32233;49.500;7.764;2023-05-07T00:28:08;3.10;;;2.30;;
7432;SDS011;32233;49.500;7.764;2023-05-07T00:30:34;2.87;;;2.57;;
7432;SDS011;32233;49.500;7.764;2023-05-07T00:33:01;3.27;;;2.80;;
7432;SDS011;32233;49.500;7.764;2023-05-07T00:35:30;2.63;;;2.43;;
7432;SDS011;32233;49.500;7.764;2023-05-07T00:37:57;3.83;;;2.80;;
7432;SDS011;32233;49.500;7.764;2023-05-07T00:40:24;3.13;;;2.40;;
7432;SDS011;32233;49.500;7.764;2023-05-07T00:42:50;2.90;;;2.70;;
7432;SDS011;32233;49.500;7.764;2023-05-07T00:45:19;4.20;;;2.70;;
7432;SDS011;32233;49.500;7.764;2023-05-07T00:47:46;3.83;;;2.50;;
7432;SDS011;32233;49.500;7.764;2023-05-07T00:50:12;3.67;;;2.60;;
7432;SDS011;32233;49.500;7.764;2023-05-07T00:52:39;4.13;;;2.67;;
7432;SDS011;32233;49.500;7.764;2023-05-07T00:55:07;4.97;;;2.90;;
7432;SDS011;32233;49.500;7.764;2023-05-07T00:57:37;2.60;;;2.40;;
7432;SDS011;32233;49.500;7.764;2023-05-07T01:00:07;4.30;;;2.60;;
7432;SDS011;32233;49.500;7.764;2023-05-07T01:02:35;4.23;;;2.80;;
7432;SDS011;32233;49.500;7.764;2023-05-07T01:05:02;3.80;;;2.60;;
7432;SDS011;32233;49.500;7.764;2023-05-07T01:07:32;3.90;;;2.40;;
7432;SDS011;32233;49.500;7.764;2023-05-07T01:10:00;2.57;;;2.37;;
7432;SDS011;32233;49.500;7.764;2023-05-07T01:12:29;3.57;;;2.37;;
7432;SDS011;32233;49.500;7.764;2023-05-07T01:14:57;2.30;;;2.10;;
7432;SDS011;32233;49.500;7.764;2023-05-07T01:17:24;3.47;;;2.50;;
7432;SDS011;32233;49.500;7.764;2023-05-07T01:19:51;2.03;;;1.90;;
7432;SDS011;32233;49.500;7.764;2023-05-07T01:22:32;3.07;;;2.63;;
7432;SDS011;32233;49.500;7.764;2023-05-07T01:25:00;3.10;;;2.57;;
7432;SDS011;32233;49.500;7.764;2023-05-07T01:27:29;4.73;;;2.80;;
7432;SDS011;32233;49.500;7.764;2023-05-07T01:29:56;3.53;;;2.67;;
7432;SDS011;32233;49.500;7.764;2023-05-07T01:32:31;2.70;;;2.33;;
7432;SDS011;32233;49.500;7.764;2023-05-07T01:35:03;3.57;;;2.53;;
7432;SDS011;32233;49.500;7.764;2023-05-07T01:37:33;4.70;;;2.50;;
7432;SDS011;32233;49.500;7.764;2023-05-07T01:40:00;2.50;;;2.30;;
7432;SDS011;32233;49.500;7.764;2023-05-07T01:42:29;2.93;;;2.50;;
7432;SDS011;32233;49.500;7.764;2023-05-07T01:44:55;4.50;;;2.60;;
7432;SDS011;32233;49.500;7.764;2023-05-07T01:47:22;3.07;;;2.80;;
7432;SDS011;32233;49.500;7.764;2023-05-07T01:49:50;3.03;;;2.77;;
7432;SDS011;32233;49.500;7.764;2023-05-07T01:52:16;4.43;;;2.60;;
7432;SDS011;32233;49.500;7.764;2023-05-07T01:54:43;3.00;;;2.80;;
7432;SDS011;32233;49.500;7.764;2023-05-07T01:57:10;3.10;;;2.80;;
7432;SDS011;32233;49.500;7.764;2023-05-07T01:59:37;3.37;;;3.07;;
7432;SDS011;32233;49.500;7.764;2023-05-07T02:02:06;4.33;;;3.23;;
7432;SDS011;32233;49.500;7.764;2023-05-07T02:04:35;4.10;;;2.80;;
7432;SDS011;32233;49.500;7.764;2023-05-07T02:07:02;4.60;;;3.10;;
7432;SDS011;32233;49.500;7.764;2023-05-07T02:09:29;3.10;;;2.83;;
7432;SDS011;32233;49.500;7.764;2023-05-07T02:11:56;4.53;;;3.23;;
7432;SDS011;32233;49.500;7.764;2023-05-07T02:14:23;5.50;;;3.60;;
7432;SDS011;32233;49.500;7.764;2023-05-07T02:16:49;4.67;;;3.57;;
7432;SDS011;32233;49.500;7.764;2023-05-07T02:19:16;3.60;;;3.00;;
7432;SDS011;32233;49.500;7.764;2023-05-07T02:21:43;3.40;;;3.10;;
7432;SDS011;32233;49.500;7.764;2023-05-07T02:24:10;4.57;;;3.23;;
7432;SDS011;32233;49.500;7.764;2023-05-07T02:26:36;2.73;;;2.53;;
7432;SDS011;32233;49.500;7.764;2023-05-07T02:29:03;6.80;;;3.60;;
7432;SDS011;32233;49.500;7.764;2023-05-07T02:31:30;3.70;;;3.40;;
7432;SDS011;32233;49.500;7.764;2023-05-07T02:33:58;4.73;;;3.20;;
7432;SDS011;32233;49.500;7.764;2023-05-07T02:36:24;5.17;;;3.43;;
7432;SDS011;32233;49.500;7.764;2023-05-07T02:39:03;3.47;;;3.17;;
7432;SDS011;32233;49.500;7.764;2023-05-07T02:41:30;4.07;;;3.13;;
7432;SDS011;32233;49.500;7.764;2023-05-07T02:43:56;3.60;;;3.30;;
7432;SDS011;32233;49.500;7.764;2023-05-07T02:46:23;3.20;;;2.90;;
7432;SDS011;32233;49.500;7.764;2023-05-07T02:48:57;3.73;;;3.10;;
7432;SDS011;32233;49.500;7.764;2023-05-07T02:51:25;3.00;;;2.73;;
7432;SDS011;32233;49.500;7.764;2023-05-07T02:53:54;3.77;;;3.40;;
7432;SDS011;32233;49.500;7.764;2023-05-07T02:56:21;3.50;;;3.20;;
7432;SDS011;32233;49.500;7.764;2023-05-07T02:58:48;4.17;;;2.97;;
7432;SDS011;32233;49.500;7.764;2023-05-07T03:01:16;2.77;;;2.57;;
7432;SDS011;32233;49.500;7.764;2023-05-07T03:03:49;3.13;;;2.87;;
7432;SDS011;32233;49.500;7.764;2023-05-07T03:06:16;3.63;;;3.17;;
7432;SDS011;32233;49.500;7.764;2023-05-07T03:08:43;2.93;;;2.73;;
7432;SDS011;32233;49.500;7.764;2023-05-07T03:11:10;3.77;;;2.60;;
7432;SDS011;32233;49.500;7.764;2023-05-07T03:13:36;4.87;;;3.20;;
7432;SDS011;32233;49.500;7.764;2023-05-07T03:16:03;3.37;;;3.07;;
7432;SDS011;32233;49.500;7.764;2023-05-07T03:18:29;3.57;;;3.07;;
7432;SDS011;32233;49.500;7.764;2023-05-07T03:20:56;3.17;;;2.87;;
7432;SDS011;32233;49.500;7.764;2023-05-07T03:23:23;2.93;;;2.73;;
7432;SDS011;32233;49.500;7.764;2023-05-07T03:25:50;3.93;;;3.07;;
7432;SDS011;32233;49.500;7.764;2023-05-07T03:28:17;4.80;;;2.63;;
7432;SDS011;32233;49.500;7.764;2023-05-07T03:30:50;3.17;;;2.87;;
7432;SDS011;32233;49.500;7.764;2023-05-07T03:33:17;3.33;;;3.00;;
7432;SDS011;32233;49.500;7.764;2023-05-07T03:35:43;2.63;;;2.43;;
7432;SDS011;32233;49.500;7.764;2023-05-07T03:38:13;3.20;;;2.70;;
7432;SDS011;32233;49.500;7.764;2023-05-07T03:40:39;3.17;;;2.67;;
7432;SDS011;32233;49.500;7.764;2023-05-07T03:43:06;2.83;;;2.53;;
7432;SDS011;32233;49.500;7.764;2023-05-07T03:45:36;3.13;;;2.90;;
7432;SDS011;32233;49.500;7.764;2023-05-07T03:48:10;6.10;;;3.20;;
7432;SDS011;32233;49.500;7.764;2023-05-07T03:50:37;3.57;;;2.70;;
7432;SDS011;32233;49.500;7.764;2023-05-07T03:53:05;3.83;;;2.70;;
7432;SDS011;32233;49.500;7.764;2023-05-07T03:55:36;2.93;;;2.57;;
7432;SDS011;32233;49.500;7.764;2023-05-07T03:58:03;3.37;;;2.63;;
7432;SDS011;32233;49.500;7.764;2023-05-07T04:00:30;4.13;;;2.97;;
7432;SDS011;32233;49.500;7.764;2023-05-07T04:02:59;3.47;;;3.17;;
7432;SDS011;32233;49.500;7.764;2023-05-07T04:05:29;4.03;;;3.17;;
7432;SDS011;32233;49.500;7.764;2023-05-07T04:08:00;3.73;;;3.03;;
7432;SDS011;32233;49.500;7.764;2023-05-07T04:10:34;4.07;;;2.80;;
7432;SDS011;32233;49.500;7.764;2023-05-07T04:13:05;4.63;;;3.57;;
7432;SDS011;32233;49.500;7.764;2023-05-07T04:15:32;4.40;;;2.87;;
7432;SDS011;32233;49.500;7.764;2023-05-07T04:17:58;3.10;;;2.80;;
7432;SDS011;32233;49.500;7.764;2023-05-07T04:20:25;4.43;;;3.10;;
7432;SDS011;32233;49.500;7.764;2023-05-07T04:23:00;3.13;;;2.93;;
7432;SDS011;32233;49.500;7.764;2023-05-07T04:25:27;3.50;;;3.20;;
7432;SDS011;32233;49.500;7.764;2023-05-07T04:28:00;4.03;;;2.70;;
7432;SDS011;32233;49.500;7.764;2023-05-07T04:30:28;2.60;;;2.40;;
7432;SDS011;32233;49.500;7.764;2023-05-07T04:32:55;3.00;;;2.70;;
7432;SDS011;32233;49.500;7.764;2023-05-07T04:35:24;2.93;;;2.63;;
7432;SDS011;32233;49.500;7.764;2023-05-07T04:37:51;3.03;;;2.70;;
7432;SDS011;32233;49.500;7.764;2023-05-07T04:40:18;3.13;;;2.60;;
7432;SDS011;32233;49.500;7.764;2023-05-07T04:42:45;3.53;;;2.70;;
7432;SDS011;32233;49.500;7.764;2023-05-07T04:45:11;3.57;;;2.60;;
7432;SDS011;32233;49.500;7.764;2023-05-07T04:47:41;4.03;;;3.37;;
7432;SDS011;32233;49.500;7.764;2023-05-07T04:50:08;2.93;;;2.70;;
7432;SDS011;32233;49.500;7.764;2023-05-07T04:52:36;3.27;;;2.93;;
7432;SDS011;32233;49.500;7.764;2023-05-07T04:55:04;3.97;;;2.93;;
7432;SDS011;32233;49.500;7.764;2023-05-07T04:57:35;3.13;;;2.90;;
7432;SDS011;32233;49.500;7.764;2023-05-07T05:00:02;3.43;;;2.40;;
7432;SDS011;32233;49.500;7.764;2023-05-07T05:02:32;2.87;;;2.60;;
7432;SDS011;32233;49.500;7.764;2023-05-07T05:05:00;4.20;;;2.50;;
7432;SDS011;32233;49.500;7.764;2023-05-07T05:07:28;3.30;;;2.33;;
7432;SDS011;32233;49.500;7.764;2023-05-07T05:09:54;3.60;;;2.60;;
7432;SDS011;32233;49.500;7.764;2023-05-07T05:12:22;3.50;;;2.73;;
7432;SDS011;32233;49.500;7.764;2023-05-07T05:14:48;2.73;;;2.53;;
7432;SDS011;32233;49.500;7.764;2023-05-07T05:17:16;2.30;;;2.17;;
7432;SDS011;32233;49.500;7.764;2023-05-07T05:19:42;3.70;;;2.73;;
7432;SDS011;32233;49.500;7.764;2023-05-07T05:22:09;3.20;;;2.93;;
7432;SDS011;32233;49.500;7.764;2023-05-07T05:24:35;4.30;;;2.47;;
7432;SDS011;32233;49.500;7.764;2023-05-07T05:27:02;5.23;;;2.63;;
7432;SDS011;32233;49.500;7.764;2023-05-07T05:29:30;4.47;;;2.90;;
7432;SDS011;32233;49.500;7.764;2023-05-07T05:32:00;3.47;;;2.47;;
7432;SDS011;32233;49.500;7.764;2023-05-07T05:34:29;2.63;;;2.43;;
7432;SDS011;32233;49.500;7.764;2023-05-07T05:36:56;2.97;;;2.47;;
7432;SDS011;32233;49.500;7.764;2023-05-07T05:39:24;2.97;;;2.30;;
7432;SDS011;32233;49.500;7.764;2023-05-07T05:41:51;2.50;;;2.30;;
7432;SDS011;32233;49.500;7.764;2023-05-07T05:44:19;2.97;;;2.37;;
7432;SDS011;32233;49.500;7.764;2023-05-07T05:46:45;2.63;;;2.30;;
7432;SDS011;32233;49.500;7.764;2023-05-07T05:49:13;3.00;;;2.80;;
7432;SDS011;32233;49.500;7.764;2023-05-07T05:51:39;4.80;;;2.57;;
7432;SDS011;32233;49.500;7.764;2023-05-07T05:54:07;2.60;;;2.40;;
7432;SDS011;32233;49.500;7.764;2023-05-07T05:56:33;2.90;;;2.63;;
7432;SDS011;32233;49.500;7.764;2023-05-07T05:59:00;2.83;;;2.63;;
7432;SDS011;32233;49.500;7.764;2023-05-07T06:01:27;3.10;;;2.53;;
7432;SDS011;32233;49.500;7.764;2023-05-07T06:03:56;3.67;;;2.70;;
7432;SDS011;32233;49.500;7.764;2023-05-07T06:06:22;3.60;;;3.27;;
7432;SDS011;32233;49.500;7.764;2023-05-07T06:08:49;3.03;;;2.83;;
7432;SDS011;32233;49.500;7.764;2023-05-07T06:11:20;4.90;;;4.50;;
7432;SDS011;32233;49.500;7.764;2023-05-07T06:13:47;3.87;;;2.50;;
7432;SDS011;32233;49.500;7.764;2023-05-07T06:16:13;2.83;;;2.60;;
7432;SDS011;32233;49.500;7.764;2023-05-07T06:18:42;3.60;;;2.90;;
7432;SDS011;32233;49.500;7.764;2023-05-07T06:21:09;2.83;;;2.47;;
7432;SDS011;32233;49.500;7.764;2023-05-07T06:23:36;3.10;;;2.67;;
7432;SDS011;32233;49.500;7.764;2023-05-07T06:26:04;3.53;;;2.60;;
7432;SDS011;32233;49.500;7.764;2023-05-07T06:28:36;1.97;;;1.87;;
7432;SDS011;32233;49.500;7.764;2023-05-07T06:31:12;2.50;;;2.30;;
7432;SDS011;32233;49.500;7.764;2023-05-07T06:33:40;2.17;;;1.97;;
7432;SDS011;32233;49.500;7.764;2023-05-07T06:36:06;2.20;;;2.00;;
7432;SDS011;32233;49.500;7.764;2023-05-07T06:38:34;2.30;;;2.10;;
7432;SDS011;32233;49.500;7.764;2023-05-07T06:41:00;2.40;;;2.00;;
7432;SDS011;32233;49.500;7.764;2023-05-07T06:43:27;2.17;;;2.07;;
7432;SDS011;32233;49.500;7.764;2023-05-07T06:46:06;2.60;;;2.00;;
7432;SDS011;32233;49.500;7.764;2023-05-07T06:48:33;2.23;;;1.90;;
7432;SDS011;32233;49.500;7.764;2023-05-07T06:51:04;2.17;;;1.97;;
7432;SDS011;32233;49.500;7.764;2023-05-07T06:53:31;4.37;;;2.00;;
7432;SDS011;32233;49.500;7.764;2023-05-07T06:55:59;2.60;;;2.30;;
7432;SDS011;32233;49.500;7.764;2023-05-07T06:58:26;2.80;;;2.03;;
7432;SDS011;32233;49.500;7.764;2023-05-07T07:00:52;2.40;;;2.20;;
7432;SDS011;32233;49.500;7.764;2023-05-07T07:03:19;2.10;;;2.00;;
7432;SDS011;32233;49.500;7.764;2023-05-07T07:05:46;2.37;;;2.00;;
7432;SDS011;32233;49.500;7.764;2023-05-07T07:08:13;2.13;;;2.00;;
7432;SDS011;32233;49.500;7.764;2023-05-07T07:10:40;2.10;;;1.90;;
7432;SDS011;32233;49.500;7.764;2023-05-07T07:13:06;2.63;;;1.90;;
7432;SDS011;32233;49.500;7.764;2023-05-07T07:15:33;2.13;;;2.03;;
7432;SDS011;32233;49.500;7.764;2023-05-07T07:17:59;4.50;;;2.37;;
7432;SDS011;32233;49.500;7.764;2023-05-07T07:20:26;5.20;;;2.57;;
7432;SDS011;32233;49.500;7.764;2023-05-07T07:22:53;2.97;;;2.40;;
7432;SDS011;32233;49.500;7.764;2023-05-07T07:25:20;2.90;;;2.47;;
7432;SDS011;32233;49.500;7.764;2023-05-07T07:27:48;3.47;;;2.57;;
7432;SDS011;32233;49.500;7.764;2023-05-07T07:30:15;2.53;;;2.33;;
7432;SDS011;32233;49.500;7.764;2023-05-07T07:32:45;4.00;;;2.30;;
7432;SDS011;32233;49.500;7.764;2023-05-07T07:35:11;2.47;;;2.27;;
7432;SDS011;32233;49.500;7.764;2023-05-07T07:37:38;2.00;;;1.90;;
7432;SDS011;32233;49.500;7.764;2023-05-07T07:40:05;2.27;;;2.07;;
7432;SDS011;32233;49.500;7.764;2023-05-07T07:42:33;2.07;;;1.93;;
7432;SDS011;32233;49.500;7.764;2023-05-07T07:45:00;2.77;;;2.57;;
7432;SDS011;32233;49.500;7.764;2023-05-07T07:47:31;3.27;;;2.27;;
7432;SDS011;32233;49.500;7.764;2023-05-07T07:49:57;2.40;;;1.90;;
7432;SDS011;32233;49.500;7.764;2023-05-07T07:52:24;2.77;;;2.00;;
7432;SDS011;32233;49.500;7.764;2023-05-07T07:54:50;2.03;;;1.80;;
7432;SDS011;32233;49.500;7.764;2023-05-07T07:57:17;1.87;;;1.77;;
7432;SDS011;32233;49.500;7.764;2023-05-07T07:59:45;2.20;;;1.80;;
7432;SDS011;32233;49.500;7.764;2023-05-07T08:02:14;2.13;;;1.93;;
7432;SDS011;32233;49.500;7.764;2023-05-07T08:04:40;1.60;;;1.50;;
7432;SDS011;32233;49.500;7.764;2023-05-07T08:07:08;1.80;;;1.70;;
7432;SDS011;32233;49.500;7.764;2023-05-07T08:09:38;2.47;;;1.97;;
7432;SDS011;32233;49.500;7.764;2023-05-07T08:12:05;1.80;;;1.60;;
7432;SDS011;32233;49.500;7.764;2023-05-07T08:14:33;2.00;;;1.90;;
7432;SDS011;32233;49.500;7.764;2023-05-07T08:17:00;1.63;;;1.50;;
7432;SDS011;32233;49.500;7.764;2023-05-07T08:19:27;2.13;;;1.70;;
7432;SDS011;32233;49.500;7.764;2023-05-07T08:21:54;1.70;;;1.60;;
7432;SDS011;32233;49.500;7.764;2023-05-07T08:24:23;1.83;;;1.73;;
7432;SDS011;32233;49.500;7.764;2023-05-07T08:26:50;2.10;;;1.83;;
7432;SDS011;32233;49.500;7.764;2023-05-07T08:29:17;2.10;;;1.90;;
7432;SDS011;32233;49.500;7.764;2023-05-07T08:31:43;3.27;;;2.30;;
7432;SDS011;32233;49.500;7.764;2023-05-07T08:34:10;2.43;;;1.90;;
7432;SDS011;32233;49.500;7.764;2023-05-07T08:36:40;1.90;;;1.80;;
7432;SDS011;32233;49.500;7.764;2023-05-07T08:39:09;1.63;;;1.53;;
7432;SDS011;32233;49.500;7.764;2023-05-07T08:41:36;2.33;;;1.50;;
7432;SDS011;32233;49.500;7.764;2023-05-07T08:44:03;3.10;;;1.80;;
7432;SDS011;32233;49.500;7.764;2023-05-07T08:46:37;1.60;;;1.50;;
7432;SDS011;32233;49.500;7.764;2023-05-07T08:49:05;2.37;;;1.43;;
7432;SDS011;32233;49.500;7.764;2023-05-07T08:51:32;2.73;;;1.60;;
7432;SDS011;32233;49.500;7.764;2023-05-07T08:53:58;2.67;;;1.50;;
7432;SDS011;32233;49.500;7.764;2023-05-07T08:56:29;1.73;;;1.60;;
7432;SDS011;32233;49.500;7.764;2023-05-07T08:58:56;1.60;;;1.50;;
7432;SDS011;32233;49.500;7.764;2023-05-07T09:01:26;2.13;;;1.50;;
7432;SDS011;32233;49.500;7.764;2023-05-07T09:03:54;2.30;;;1.60;;
7432;SDS011;32233;49.500;7.764;2023-05-07T09:06:22;1.63;;;1.53;;
7432;SDS011;32233;49.500;7.764;2023-05-07T09:08:50;1.70;;;1.60;;
7432;SDS011;32233;49.500;7.764;2023-05-07T09:11:21;2.17;;;1.60;;
7432;SDS011;32233;49.500;7.764;2023-05-07T09:13:53;2.03;;;1.70;;
7432;SDS011;32233;49.500;7.764;2023-05-07T09:16:23;1.70;;;1.60;;
7432;SDS011;32233;49.500;7.764;2023-05-07T09:18:52;2.83;;;1.53;;
7432;SDS011;32233;49.500;7.764;2023-05-07T09:21:21;3.70;;;1.60;;
7432;SDS011;32233;49.500;7.764;2023-05-07T09:23:54;3.33;;;1.43;;
7432;SDS011;32233;49.500;7.764;2023-05-07T09:26:28;1.60;;;1.50;;
7432;SDS011;32233;49.500;7.764;2023-05-07T09:28:55;1.57;;;1.37;;
7432;SDS011;32233;49.500;7.764;2023-05-07T09:31:21;1.80;;;1.30;;
7432;SDS011;32233;49.500;7.764;2023-05-07T09:33:50;4.40;;;1.57;;
7432;SDS011;32233;49.500;7.764;2023-05-07T09:36:19;1.50;;;1.40;;
7432;SDS011;32233;49.500;7.764;2023-05-07T09:38:45;2.33;;;1.33;;
7432;SDS011;32233;49.500;7.764;2023-05-07T09:41:12;2.10;;;1.90;;
7432;SDS011;32233;49.500;7.764;2023-05-07T09:43:46;1.87;;;1.70;;
7432;SDS011;32233;49.500;7.764;2023-05-07T09:46:27;1.83;;;1.70;;
7432;SDS011;32233;49.500;7.764;2023-05-07T09:48:58;1.87;;;1.73;;
7432;SDS011;32233;49.500;7.764;2023-05-07T09:51:34;2.23;;;1.60;;
7432;SDS011;32233;49.500;7.764;2023-05-07T09:54:09;2.17;;;1.93;;
7432;SDS011;32233;49.500;7.764;2023-05-07T09:56:38;1.70;;;1.50;;
7432;SDS011;32233;49.500;7.764;2023-05-07T09:59:10;2.60;;;1.40;;
7432;SDS011;32233;49.500;7.764;2023-05-07T10:01:43;3.43;;;1.70;;
7432;SDS011;32233;49.500;7.764;2023-05-07T10:04:12;3.17;;;1.40;;
7432;SDS011;32233;49.500;7.764;2023-05-07T10:06:41;1.53;;;1.40;;
7432;SDS011;32233;49.500;7.764;2023-05-07T10:09:09;1.33;;;1.23;;
7432;SDS011;32233;49.500;7.764;2023-05-07T10:11:37;3.97;;;1.80;;
7432;SDS011;32233;49.500;7.764;2023-05-07T10:14:04;3.33;;;1.90;;
7432;SDS011;32233;49.500;7.764;2023-05-07T10:16:35;2.13;;;1.50;;
7432;SDS011;32233;49.500;7.764;2023-05-07T10:19:07;2.47;;;1.80;;
7432;SDS011;32233;49.500;7.764;2023-05-07T10:21:36;2.30;;;1.57;;
7432;SDS011;32233;49.500;7.764;2023-05-07T10:26:42;1.97;;;1.53;;
7432;SDS011;32233;49.500;7.764;2023-05-07T10:29:13;1.43;;;1.33;;
7432;SDS011;32233;49.500;7.764;2023-05-07T10:31:54;1.60;;;1.50;;
7432;SDS011;32233;49.500;7.764;2023-05-07T10:34:26;3.63;;;2.03;;
7432;SDS011;32233;49.500;7.764;2023-05-07T10:36:56;1.60;;;1.50;;
7432;SDS011;32233;49.500;7.764;2023-05-07T10:39:24;2.50;;;1.60;;
7432;SDS011;32233;49.500;7.764;2023-05-07T10:41:52;2.63;;;2.07;;
7432;SDS011;32233;49.500;7.764;2023-05-07T10:44:28;1.50;;;1.40;;
7432;SDS011;32233;49.500;7.764;2023-05-07T10:47:11;2.50;;;1.53;;
7432;SDS011;32233;49.500;7.764;2023-05-07T10:52:25;2.87;;;2.37;;
7432;SDS011;32233;49.500;7.764;2023-05-07T10:57:43;2.37;;;2.13;;
7432;SDS011;32233;49.500;7.764;2023-05-07T11:05:35;1.90;;;1.67;;
7432;SDS011;32233;49.500;7.764;2023-05-07T11:08:13;2.33;;;2.13;;
7432;SDS011;32233;49.500;7.764;2023-05-07T11:10:51;2.27;;;2.07;;
7432;SDS011;32233;49.500;7.764;2023-05-07T11:13:46;3.93;;;2.00;;
7432;SDS011;32233;49.500;7.764;2023-05-07T11:16:41;2.90;;;2.07;;
7432;SDS011;32233;49.500;7.764;2023-05-07T11:19:17;2.73;;;2.10;;
7432;SDS011;32233;49.500;7.764;2023-05-07T11:22:41;2.70;;;2.50;;
7432;SDS011;32233;49.500;7.764;2023-05-07T11:25:19;4.83;;;3.30;;
7432;SDS011;32233;49.500;7.764;2023-05-07T11:27:54;3.30;;;2.90;;
7432;SDS011;32233;49.500;7.764;2023-05-07T11:30:22;2.70;;;2.43;;
7432;SDS011;32233;49.500;7.764;2023-05-07T11:32:48;2.60;;;2.40;;
7432;SDS011;32233;49.500;7.764;2023-05-07T11:35:16;2.90;;;2.70;;
7432;SDS011;32233;49.500;7.764;2023-05-07T11:37:46;3.60;;;2.73;;
7432;SDS011;32233;49.500;7.764;2023-05-07T11:40:14;3.23;;;2.93;;
7432;SDS011;32233;49.500;7.764;2023-05-07T11:42:41;3.70;;;2.90;;
7432;SDS011;32233;49.500;7.764;2023-05-07T11:45:09;4.60;;;3.07;;
7432;SDS011;32233;49.500;7.764;2023-05-07T11:47:36;4.03;;;3.53;;
7432;SDS011;32233;49.500;7.764;2023-05-07T11:50:06;4.03;;;3.73;;
7432;SDS011;32233;49.500;7.764;2023-05-07T11:52:34;4.20;;;3.53;;
7432;SDS011;32233;49.500;7.764;2023-05-07T11:55:02;4.83;;;3.73;;
7432;SDS011;32233;49.500;7.764;2023-05-07T11:57:32;4.27;;;3.80;;
7432;SDS011;32233;49.500;7.764;2023-05-07T12:00:04;5.93;;;4.00;;
7432;SDS011;32233;49.500;7.764;2023-05-07T12:02:41;3.33;;;3.03;;
7432;SDS011;32233;49.500;7.764;2023-05-07T12:05:08;5.07;;;4.40;;
7432;SDS011;32233;49.500;7.764;2023-05-07T12:07:36;4.70;;;4.30;;
7432;SDS011;32233;49.500;7.764;2023-05-07T12:10:06;4.93;;;3.90;;
7432;SDS011;32233;49.500;7.764;2023-05-07T12:12:39;3.93;;;3.63;;
7432;SDS011;32233;49.500;7.764;2023-05-07T12:15:15;4.53;;;4.17;;
7432;SDS011;32233;49.500;7.764;2023-05-07T12:17:42;4.63;;;3.70;;
7432;SDS011;32233;49.500;7.764;2023-05-07T12:20:12;4.20;;;3.90;;
7432;SDS011;32233;49.500;7.764;2023-05-07T12:22:38;3.83;;;3.53;;
7432;SDS011;32233;49.500;7.764;2023-05-07T12:25:05;3.10;;;2.90;;
7432;SDS011;32233;49.500;7.764;2023-05-07T12:27:36;3.80;;;3.50;;
7432;SDS011;32233;49.500;7.764;2023-05-07T12:30:03;3.33;;;3.13;;
7432;SDS011;32233;49.500;7.764;2023-05-07T12:32:30;3.87;;;3.47;;
7432;SDS011;32233;49.500;7.764;2023-05-07T12:34:56;4.80;;;3.90;;
7432;SDS011;32233;49.500;7.764;2023-05-07T12:37:24;4.53;;;3.80;;
7432;SDS011;32233;49.500;7.764;2023-05-07T12:40:09;3.87;;;3.53;;
7432;SDS011;32233;49.500;7.764;2023-05-07T12:42:37;3.60;;;3.30;;
7432;SDS011;32233;49.500;7.764;2023-05-07T12:45:12;3.27;;;2.70;;
7432;SDS011;32233;49.500;7.764;2023-05-07T12:47:46;3.97;;;3.67;;
7432;SDS011;32233;49.500;7.764;2023-05-07T12:50:13;3.47;;;3.20;;
7432;SDS011;32233;49.500;7.764;2023-05-07T12:52:42;4.40;;;3.30;;
7432;SDS011;32233;49.500;7.764;2023-05-07T12:55:12;4.30;;;3.57;;
7432;SDS011;32233;49.500;7.764;2023-05-07T12:57:41;4.30;;;3.10;;
7432;SDS011;32233;49.500;7.764;2023-05-07T13:00:11;3.43;;;3.17;;
7432;SDS011;32233;49.500;7.764;2023-05-07T13:02:39;4.43;;;3.67;;
7432;SDS011;32233;49.500;7.764;2023-05-07T13:05:08;4.00;;;3.70;;
7432;SDS011;32233;49.500;7.764;2023-05-07T13:07:35;5.43;;;4.10;;
7432;SDS011;32233;49.500;7.764;2023-05-07T13:10:03;4.60;;;4.20;;
7432;SDS011;32233;49.500;7.764;2023-05-07T13:12:30;5.57;;;4.23;;
7432;SDS011;32233;49.500;7.764;2023-05-07T13:14:57;4.97;;;4.37;;
7432;SDS011;32233;49.500;7.764;2023-05-07T13:17:23;4.40;;;4.00;;
7432;SDS011;32233;49.500;7.764;2023-05-07T13:19:50;5.10;;;4.70;;
7432;SDS011;32233;49.500;7.764;2023-05-07T13:22:16;5.00;;;4.50;;
7432;SDS011;32233;49.500;7.764;2023-05-07T13:24:43;4.70;;;4.23;;
7432;SDS011;32233;49.500;7.764;2023-05-07T13:27:09;5.10;;;4.60;;
7432;SDS011;32233;49.500;7.764;2023-05-07T13:29:36;5.03;;;4.50;;
7432;SDS011;32233;49.500;7.764;2023-05-07T13:32:02;5.00;;;4.20;;
7432;SDS011;32233;49.500;7.764;2023-05-07T13:34:29;6.90;;;4.83;;
7432;SDS011;32233;49.500;7.764;2023-05-07T13:36:56;5.70;;;4.60;;
7432;SDS011;32233;49.500;7.764;2023-05-07T13:39:22;6.47;;;5.00;;
7432;SDS011;32233;49.500;7.764;2023-05-07T13:41:49;8.00;;;5.30;;
7432;SDS011;32233;49.500;7.764;2023-05-07T13:44:15;7.13;;;5.70;;
7432;SDS011;32233;49.500;7.764;2023-05-07T13:46:42;6.50;;;5.50;;
7432;SDS011;32233;49.500;7.764;2023-05-07T13:49:08;7.17;;;5.83;;
7432;SDS011;32233;49.500;7.764;2023-05-07T13:51:37;7.13;;;6.10;;
7432;SDS011;32233;49.500;7.764;2023-05-07T13:54:03;7.17;;;6.53;;
7432;SDS011;32233;49.500;7.764;2023-05-07T13:56:30;7.90;;;6.30;;
7432;SDS011;32233;49.500;7.764;2023-05-07T13:58:57;8.07;;;6.00;;
7432;SDS011;32233;49.500;7.764;2023-05-07T14:01:26;6.37;;;5.73;;
7432;SDS011;32233;49.500;7.764;2023-05-07T14:03:53;10.60;;;5.73;;
7432;SDS011;32233;49.500;7.764;2023-05-07T14:06:21;7.23;;;6.43;;
7432;SDS011;32233;49.500;7.764;2023-05-07T14:08:48;6.47;;;5.80;;
7432;SDS011;32233;49.500;7.764;2023-05-07T14:11:14;9.07;;;5.97;;
7432;SDS011;32233;49.500;7.764;2023-05-07T14:13:41;8.27;;;5.60;;
7432;SDS011;32233;49.500;7.764;2023-05-07T14:16:08;6.03;;;5.43;;
7432;SDS011;32233;49.500;7.764;2023-05-07T14:18:34;6.63;;;5.93;;
7432;SDS011;32233;49.500;7.764;2023-05-07T14:21:03;8.53;;;5.67;;
7432;SDS011;32233;49.500;7.764;2023-05-07T14:23:38;6.37;;;5.40;;
7432;SDS011;32233;49.500;7.764;2023-05-07T14:26:11;6.70;;;5.70;;
7432;SDS011;32233;49.500;7.764;2023-05-07T14:28:38;9.20;;;5.60;;
7432;SDS011;32233;49.500;7.764;2023-05-07T14:31:05;6.70;;;4.97;;
7432;SDS011;32233;49.500;7.764;2023-05-07T14:33:32;5.43;;;4.50;;
7432;SDS011;32233;49.500;7.764;2023-05-07T14:35:59;5.80;;;4.50;;
7432;SDS011;32233;49.500;7.764;2023-05-07T14:38:25;6.97;;;4.57;;
7432;SDS011;32233;49.500;7.764;2023-05-07T14:40:52;7.00;;;5.43;;
7432;SDS011;32233;49.500;7.764;2023-05-07T14:43:22;10.87;;;8.30;;
7432;SDS011;32233;49.500;7.764;2023-05-07T14:45:49;6.63;;;5.67;;
7432;SDS011;32233;49.500;7.764;2023-05-07T14:48:16;8.40;;;5.13;;
7432;SDS011;32233;49.500;7.764;2023-05-07T14:50:47;8.30;;;4.80;;
7432;SDS011;32233;49.500;7.764;2023-05-07T14:53:14;5.37;;;4.00;;
7432;SDS011;32233;49.500;7.764;2023-05-07T14:55:41;4.57;;;4.17;;
7432;SDS011;32233;49.500;7.764;2023-05-07T14:58:08;5.23;;;4.40;;
7432;SDS011;32233;49.500;7.764;2023-05-07T15:00:34;5.10;;;3.40;;
7432;SDS011;32233;49.500;7.764;2023-05-07T15:03:05;4.63;;;4.17;;
7432;SDS011;32233;49.500;7.764;2023-05-07T15:05:33;8.20;;;4.40;;
7432;SDS011;32233;49.500;7.764;2023-05-07T15:08:00;5.10;;;4.13;;
7432;SDS011;32233;49.500;7.764;2023-05-07T15:10:27;4.80;;;3.57;;
7432;SDS011;32233;49.500;7.764;2023-05-07T15:12:53;6.70;;;5.53;;
7432;SDS011;32233;49.500;7.764;2023-05-07T15:15:20;6.30;;;5.47;;
7432;SDS011;32233;49.500;7.764;2023-05-07T15:17:46;6.47;;;4.63;;
7432;SDS011;32233;49.500;7.764;2023-05-07T15:20:13;5.33;;;4.20;;
7432;SDS011;32233;49.500;7.764;2023-05-07T15:22:40;8.07;;;4.50;;